This is the latest recevied weather packets stored in our database for station/object IT9CNT. If no packets are shown the sender has not sent any weather packets the latest 10 day(s).
| Time | Temp. | Humidity | Pressure | Rain* | Wind** | Luminosity | Snow |
|---|---|---|---|---|---|---|---|
| 1787983143 | 29.44° C | 50% | 1013.6 hPa | 0 mm | - | - | - |
| 1787983083 | 29.44° C | 51% | 1013.5 hPa | 0 mm | - | - | - |
| 1787983023 | 30° C | 48% | 1013.5 hPa | 0 mm | - | - | - |
| 1787982963 | 30° C | 46% | 1013.6 hPa | 0 mm | - | - | - |
| 1787982903 | 29.44° C | 49% | 1013.7 hPa | 0 mm | - | - | - |
| 1787982843 | 28.89° C | 48% | 1013.6 hPa | 0 mm | - | - | - |
| 1787982783 | 28.33° C | 51% | 1013.5 hPa | 0 mm | - | - | - |
| 1787982723 | 28.33° C | 52% | 1013.6 hPa | 0 mm | - | - | - |
| 1787982663 | 28.33° C | 52% | 1013.8 hPa | 0 mm | - | - | - |
| 1787982603 | 28.33° C | 53% | 1013.8 hPa | 0 mm | - | - | - |
| 1787982543 | 28.33° C | 53% | 1013.5 hPa | 0 mm | - | - | - |
| 1787982483 | 28.33° C | 52% | 1013.6 hPa | 0 mm | - | - | - |
| 1787982423 | 28.33° C | 52% | 1013.7 hPa | 0 mm | - | - | - |
| 1787982363 | 28.33° C | 52% | 1013.6 hPa | 0 mm | - | - | - |
| 1787982303 | 28.33° C | 52% | 1013.6 hPa | 0 mm | - | - | - |
| 1787982243 | 28.33° C | 53% | 1013.5 hPa | 0 mm | - | - | - |
| 1787982183 | 27.78° C | 53% | 1013.5 hPa | 0 mm | - | - | - |
| 1787982123 | 27.78° C | 53% | 1013.6 hPa | 0 mm | - | - | - |
| 1787982063 | 27.78° C | 54% | 1013.8 hPa | 0 mm | - | - | - |
| 1787982003 | 27.78° C | 54% | 1013.6 hPa | 0 mm | - | - | - |
| 1787981943 | 27.78° C | 54% | 1013.6 hPa | 0 mm | - | - | - |
| 1787981883 | 27.78° C | 54% | 1013.5 hPa | 0 mm | - | - | - |
| 1787981823 | 27.78° C | 54% | 1013.9 hPa | 0 mm | - | - | - |
| 1787981763 | 27.78° C | 54% | 1013.6 hPa | 0 mm | - | - | - |
| 1787981703 | 27.78° C | 54% | 1013.8 hPa | 0 mm | - | - | - |
* Rain latest hour (hover to see other rain measurements)
** Current wind speed in m/s (hover to see current wind gust speed)